Turocak, Russia
Current Conditions -  °F | °C
As of 10:30 PM on Thursday 30 Oct 2014 (Local Time) from UNBB Reporting Station
Snow Showers Snow Showers  
Wind Chill: 21°   Ceiling: 600
Heat Index: 32°   Visibility: 2.7mi
Dew Point: 30°   Wind: 16mph
Humidity: 93%   Direction: 230°SW
Pressure: 30.21"   Gusts: NA
Location:  52.27°N, 87.17°E
Report Text: UNBB 301530Z 23007MPS 4400 -SHSN BKN006CB M00/M01 Q1023 NOSIGRMK QBB190 QFE745/0993 24590531
Loading
Personal Weather Stations






























Interactive Weather Map
Tropical Storm Tracking
New forecast layout! Learn more

10-Day Weather Forecast

Advertisements
Track Severe Weather on mobile